createdAt,value
2023-04-09T00:00:06.349Z,101345.88
2023-04-09T00:02:57.284Z,101351.13
2023-04-09T00:05:28.073Z,101349.78
2023-04-09T00:07:58.980Z,101348.05
2023-04-09T00:10:29.848Z,101348.61
2023-04-09T00:13:00.748Z,101347.05
2023-04-09T00:15:32.148Z,101349.73
2023-04-09T00:18:03.208Z,101352.95
2023-04-09T00:20:34.008Z,101354.58
2023-04-09T00:23:04.860Z,101360.67
2023-04-09T00:25:35.644Z,101359.53
2023-04-09T00:28:06.638Z,101356.59
2023-04-09T00:30:37.388Z,101355.73
2023-04-09T00:33:08.167Z,101359.73
2023-04-09T00:35:39.196Z,101356.60
2023-04-09T00:38:10.010Z,101360.95
2023-04-09T00:40:41.221Z,101362.45
2023-04-09T00:43:12.188Z,101361.08
2023-04-09T00:45:42.963Z,101363.73
2023-04-09T00:48:13.774Z,101362.47
2023-04-09T00:50:44.634Z,101362.96
2023-04-09T00:53:15.505Z,101360.92
2023-04-09T00:55:46.785Z,101361.28
2023-04-09T00:58:17.680Z,101362.83
2023-04-09T01:00:48.420Z,101360.89
2023-04-09T01:03:19.387Z,101363.27
2023-04-09T01:05:52.774Z,101363.04
2023-04-09T01:08:27.871Z,101360.48
2023-04-09T01:10:59.941Z,101362.66
2023-04-09T01:13:31.911Z,101363.77
2023-04-09T01:16:03.253Z,101364.52
2023-04-09T01:18:35.721Z,101362.58
2023-04-09T01:21:07.722Z,101361.58
2023-04-09T01:23:47.326Z,101360.13
2023-04-09T01:26:23.164Z,101357.69
2023-04-09T01:28:54.983Z,101357.24
2023-04-09T01:31:26.861Z,101357.19
2023-04-09T01:33:57.718Z,101354.96
2023-04-09T01:36:28.516Z,101351.12
2023-04-09T01:38:59.301Z,101352.90
2023-04-09T01:41:30.899Z,101348.99
2023-04-09T01:44:02.177Z,101351.14
2023-04-09T01:46:33.014Z,101347.73
2023-04-09T01:49:04.380Z,101344.96
2023-04-09T01:51:35.812Z,101341.70
2023-04-09T01:54:07.173Z,101343.36
2023-04-09T01:56:45.525Z,101342.36
2023-04-09T01:59:17.196Z,101343.73
2023-04-09T02:01:49.659Z,101344.30
2023-04-09T02:04:24.553Z,101347.65
2023-04-09T02:06:58.542Z,101349.19
2023-04-09T02:09:31.235Z,101351.90
2023-04-09T02:12:03.342Z,101350.17
2023-04-09T02:14:35.139Z,101348.50
2023-04-09T02:17:06.691Z,101346.34
2023-04-09T02:19:41.965Z,101342.60
2023-04-09T02:22:13.397Z,101347.02
2023-04-09T02:24:44.933Z,101345.36
2023-04-09T02:27:16.549Z,101342.13
2023-04-09T02:29:48.321Z,101342.20
2023-04-09T02:32:19.752Z,101342.41
2023-04-09T02:34:51.068Z,101345.40
2023-04-09T02:37:22.512Z,101341.54
2023-04-09T02:39:54.142Z,101344.01
2023-04-09T02:42:25.656Z,101344.08
2023-04-09T02:44:56.989Z,101344.55
2023-04-09T02:47:28.177Z,101348.81
2023-04-09T02:49:59.577Z,101347.41
2023-04-09T02:52:31.122Z,101347.64
2023-04-09T02:55:02.508Z,101345.48
2023-04-09T02:57:34.211Z,101344.83
2023-04-09T03:00:06.109Z,101345.31
2023-04-09T03:02:37.590Z,101343.52
2023-04-09T03:05:09.755Z,101344.30
2023-04-09T03:07:41.261Z,101346.88
2023-04-09T03:10:12.882Z,101345.33
2023-04-09T03:12:44.844Z,101344.28
2023-04-09T03:15:17.013Z,101342.05
2023-04-09T03:17:48.767Z,101342.05
2023-04-09T03:20:20.270Z,101343.47
2023-04-09T03:22:51.688Z,101344.04
2023-04-09T03:25:23.082Z,101345.33
2023-04-09T03:27:54.467Z,101348.67
2023-04-09T03:30:26.123Z,101347.34
2023-04-09T03:32:58.224Z,101349.30
2023-04-09T03:35:29.794Z,101350.66
2023-04-09T03:38:01.098Z,101350.73
2023-04-09T03:40:33.706Z,101351.73
2023-04-09T03:43:05.390Z,101350.98
2023-04-09T03:45:36.844Z,101350.48
2023-04-09T03:48:08.194Z,101349.18
2023-04-09T03:50:42.339Z,101352.60
2023-04-09T03:53:13.880Z,101354.24
2023-04-09T03:55:45.576Z,101359.14
2023-04-09T03:58:17.089Z,101355.11
2023-04-09T04:00:48.958Z,101354.89
2023-04-09T04:03:20.199Z,101359.33
2023-04-09T04:05:52.044Z,101364.60
2023-04-09T04:08:23.574Z,101360.42
2023-04-09T04:10:55.121Z,101366.48
2023-04-09T04:13:26.288Z,101369.98
2023-04-09T04:15:57.691Z,101367.41
2023-04-09T04:18:29.250Z,101372.33
2023-04-09T04:21:00.843Z,101373.54
2023-04-09T04:23:32.403Z,101371.98
2023-04-09T04:26:03.953Z,101369.41
2023-04-09T04:28:35.251Z,101374.44
2023-04-09T04:31:11.050Z,101370.12
2023-04-09T04:33:43.007Z,101372.44
2023-04-09T04:36:14.877Z,101373.20
2023-04-09T04:38:46.363Z,101374.20
2023-04-09T04:41:17.903Z,101378.81
2023-04-09T04:43:49.604Z,101379.65
2023-04-09T04:46:21.661Z,101380.68
2023-04-09T04:48:53.530Z,101386.20
2023-04-09T04:51:25.014Z,101386.21
2023-04-09T04:53:56.396Z,101385.05
2023-04-09T04:56:27.858Z,101385.52
2023-04-09T04:58:59.563Z,101384.13
2023-04-09T05:01:31.164Z,101386.31
2023-04-09T05:04:03.287Z,101388.45
2023-04-09T05:06:34.727Z,101392.05
2023-04-09T05:09:06.322Z,101392.93
2023-04-09T05:11:37.953Z,101393.73
2023-04-09T05:14:09.337Z,101395.83
2023-04-09T05:16:40.837Z,101400.59
2023-04-09T05:19:12.341Z,101398.31
2023-04-09T05:21:45.113Z,101397.89
2023-04-09T05:24:18.400Z,101399.11
2023-04-09T05:26:49.891Z,101398.56
2023-04-09T05:29:21.257Z,101400.61
2023-04-09T05:31:52.510Z,101401.16
2023-04-09T05:34:23.978Z,101400.69
2023-04-09T05:36:55.695Z,101401.80
2023-04-09T05:39:27.233Z,101399.36
2023-04-09T05:41:58.539Z,101402.52
2023-04-09T05:44:29.923Z,101402.92
2023-04-09T05:47:01.453Z,101404.23
2023-04-09T05:49:33.010Z,101403.05
2023-04-09T05:52:04.374Z,101407.73
2023-04-09T05:54:35.661Z,101407.58
2023-04-09T05:57:07.114Z,101411.96
2023-04-09T05:59:38.592Z,101413.06
2023-04-09T06:02:10.268Z,101412.48
2023-04-09T06:04:41.933Z,101417.23
2023-04-09T06:07:13.378Z,101415.36
2023-04-09T06:09:45.283Z,101417.11
2023-04-09T06:12:17.564Z,101419.61
2023-04-09T06:14:50.204Z,101416.08
2023-04-09T06:17:21.503Z,101415.91
2023-04-09T06:19:52.847Z,101410.99
2023-04-09T06:22:24.320Z,101413.77
2023-04-09T06:24:55.910Z,101419.11
2023-04-09T06:27:27.442Z,101421.02
2023-04-09T06:29:58.936Z,101422.41
2023-04-09T06:32:32.013Z,101423.25
2023-04-09T06:35:07.643Z,101423.18
2023-04-09T06:37:40.470Z,101424.15
2023-04-09T06:40:13.146Z,101419.55
2023-04-09T06:42:44.604Z,101419.98
2023-04-09T06:45:16.037Z,101423.10
2023-04-09T06:47:47.460Z,101423.86
2023-04-09T06:50:19.055Z,101420.10
2023-04-09T06:52:50.542Z,101422.01
2023-04-09T06:55:22.530Z,101422.45
2023-04-09T06:57:53.839Z,101423.84
2023-04-09T07:00:25.336Z,101425.74
2023-04-09T07:02:56.975Z,101425.69
2023-04-09T07:05:29.075Z,101422.80
2023-04-09T07:08:00.544Z,101423.86
2023-04-09T07:10:31.897Z,101422.39
2023-04-09T07:13:03.362Z,101425.04
2023-04-09T07:15:35.011Z,101424.94
2023-04-09T07:18:07.095Z,101423.52
2023-04-09T07:20:38.497Z,101421.05
2023-04-09T07:23:09.948Z,101422.00
2023-04-09T07:25:41.322Z,101415.55
2023-04-09T07:28:12.785Z,101416.66
2023-04-09T07:30:44.261Z,101415.27
2023-04-09T07:33:15.648Z,101412.55
2023-04-09T07:35:47.102Z,101411.09
2023-04-09T07:38:18.429Z,101410.30
2023-04-09T07:40:49.753Z,101411.31
2023-04-09T07:43:22.618Z,101412.81
2023-04-09T07:45:54.179Z,101414.14
2023-04-09T07:48:25.898Z,101413.40
2023-04-09T07:50:57.139Z,101411.23
2023-04-09T07:53:28.720Z,101418.33
2023-04-09T07:56:00.154Z,101412.84
2023-04-09T07:58:31.795Z,101413.02
2023-04-09T08:01:03.187Z,101415.14
2023-04-09T08:03:36.617Z,101419.15
2023-04-09T08:06:08.512Z,101419.98
2023-04-09T08:08:39.946Z,101419.50
2023-04-09T08:11:11.488Z,101419.28
2023-04-09T08:13:42.685Z,101421.92
2023-04-09T08:16:13.961Z,101420.09
2023-04-09T08:18:45.847Z,101421.98
2023-04-09T08:21:17.361Z,101420.86
2023-04-09T08:23:48.999Z,101426.40
2023-04-09T08:26:20.382Z,101425.82
2023-04-09T08:28:52.370Z,101426.38
2023-04-09T08:31:24.098Z,101425.09
2023-04-09T08:33:55.472Z,101420.86
2023-04-09T08:36:27.905Z,101421.39
2023-04-09T08:39:00.710Z,101422.27
2023-04-09T08:41:32.242Z,101423.46
2023-04-09T08:44:03.819Z,101421.36
2023-04-09T08:46:37.175Z,101424.73
2023-04-09T08:49:09.890Z,101422.69
2023-04-09T08:51:41.176Z,101419.31
2023-04-09T08:54:12.480Z,101415.98
2023-04-09T08:56:44.011Z,101415.03
2023-04-09T08:59:19.486Z,101409.36
2023-04-09T09:01:54.775Z,101408.33
2023-04-09T09:04:26.515Z,101404.90
2023-04-09T09:06:57.794Z,101401.77
2023-04-09T09:09:30.002Z,101395.38
2023-04-09T09:12:01.928Z,101397.98
2023-04-09T09:14:33.474Z,101393.48
2023-04-09T09:17:08.684Z,101389.39
2023-04-09T09:19:40.665Z,101390.16
2023-04-09T09:22:13.466Z,101390.70
2023-04-09T09:24:50.279Z,101389.55
2023-04-09T09:27:36.782Z,101389.42
2023-04-09T09:30:10.649Z,101386.19
2023-04-09T09:32:42.607Z,101386.93
2023-04-09T09:35:13.870Z,101381.06
2023-04-09T09:37:45.464Z,101380.92
2023-04-09T09:40:27.871Z,101379.81
2023-04-09T09:42:59.306Z,101378.98
2023-04-09T09:45:30.691Z,101380.81
2023-04-09T09:48:02.551Z,101377.06
2023-04-09T09:50:33.666Z,101375.48
2023-04-09T09:53:05.338Z,101371.02
2023-04-09T09:55:37.802Z,101368.52
2023-04-09T09:58:12.170Z,101370.55
2023-04-09T10:00:43.172Z,101367.20
2023-04-09T10:03:16.103Z,101366.10
2023-04-09T10:05:48.196Z,101363.64
2023-04-09T10:08:19.072Z,101368.50
2023-04-09T10:10:50.041Z,101370.66
2023-04-09T10:13:22.510Z,101367.02
2023-04-09T10:15:53.635Z,101356.52
2023-04-09T10:18:24.780Z,101362.30
2023-04-09T10:20:58.085Z,101356.12
2023-04-09T10:23:35.726Z,101357.81
2023-04-09T10:26:06.969Z,101354.88
2023-04-09T10:28:38.209Z,101354.95
2023-04-09T10:31:09.280Z,101354.09
2023-04-09T10:33:40.228Z,101349.41
2023-04-09T10:36:13.455Z,101350.94
2023-04-09T10:38:47.032Z,101347.27
2023-04-09T10:41:18.497Z,101340.51
2023-04-09T10:43:49.749Z,101337.37
2023-04-09T10:46:30.069Z,101340.48
2023-04-09T10:49:14.182Z,101337.95
2023-04-09T10:51:45.361Z,101333.92
2023-04-09T10:54:33.507Z,101334.06
2023-04-09T10:57:14.784Z,101332.35
2023-04-09T10:59:46.179Z,101328.69
2023-04-09T11:02:33.306Z,101322.59
2023-04-09T11:05:06.149Z,101317.33
2023-04-09T11:07:38.128Z,101315.41
2023-04-09T11:10:10.332Z,101305.80
2023-04-09T11:12:41.364Z,101311.00
2023-04-09T11:15:18.552Z,101305.18
2023-04-09T11:17:49.612Z,101305.19
2023-04-09T11:20:21.541Z,101305.20
2023-04-09T11:22:54.454Z,101306.93
2023-04-09T11:25:26.467Z,101301.27
2023-04-09T11:27:57.332Z,101298.21
2023-04-09T11:30:29.047Z,101295.85
2023-04-09T11:33:00.143Z,101299.13
2023-04-09T11:35:31.458Z,101295.92
2023-04-09T11:38:02.248Z,101298.80
2023-04-09T11:40:33.123Z,101297.98
2023-04-09T11:43:04.495Z,101296.88
2023-04-09T11:45:35.526Z,101298.16
2023-04-09T11:48:06.787Z,101294.58
2023-04-09T11:50:37.678Z,101296.85
2023-04-09T11:53:18.387Z,101292.30
2023-04-09T11:55:50.758Z,101289.75
2023-04-09T11:58:22.466Z,101288.52
2023-04-09T12:00:56.522Z,101289.39
2023-04-09T12:03:32.933Z,101288.73
2023-04-09T12:06:04.323Z,101291.00
2023-04-09T12:08:37.416Z,101291.55
2023-04-09T12:11:11.851Z,101290.39
2023-04-09T12:13:44.798Z,101283.86
2023-04-09T12:16:15.724Z,101277.11
2023-04-09T12:18:46.732Z,101275.84
2023-04-09T12:21:19.357Z,101275.16
2023-04-09T12:23:50.512Z,101278.31
2023-04-09T12:26:21.681Z,101274.93
2023-04-09T12:28:52.753Z,101277.03
2023-04-09T12:31:23.695Z,101276.63
2023-04-09T12:33:54.571Z,101276.37
2023-04-09T12:36:26.734Z,101273.52
2023-04-09T12:38:57.791Z,101266.80
2023-04-09T12:41:28.738Z,101267.84
2023-04-09T12:43:59.903Z,101263.88
2023-04-09T12:46:32.481Z,101263.49
2023-04-09T12:49:04.411Z,101263.06
2023-04-09T12:51:35.646Z,101259.71
2023-04-09T12:54:06.516Z,101254.94
2023-04-09T12:56:37.348Z,101252.50
2023-04-09T12:59:08.384Z,101253.04
2023-04-09T13:01:42.030Z,101250.48
2023-04-09T13:04:14.460Z,101250.67
2023-04-09T13:06:45.315Z,101250.10
2023-04-09T13:09:16.218Z,101246.70
2023-04-09T13:11:47.319Z,101242.06
2023-04-09T13:14:18.388Z,101238.65
2023-04-09T13:16:50.197Z,101236.94
2023-04-09T13:19:21.442Z,101239.13
2023-04-09T13:21:52.305Z,101234.70
2023-04-09T13:24:23.221Z,101236.87
2023-04-09T13:26:54.393Z,101237.69
2023-04-09T13:29:26.363Z,101236.67
2023-04-09T13:31:57.828Z,101236.21
2023-04-09T13:34:28.737Z,101231.48
2023-04-09T13:36:59.737Z,101229.80
2023-04-09T13:39:30.730Z,101229.81
2023-04-09T13:42:07.184Z,101227.30
2023-04-09T13:44:45.241Z,101226.68
2023-04-09T13:47:16.973Z,101223.48
2023-04-09T13:49:48.011Z,101224.92
2023-04-09T13:52:19.040Z,101224.09
2023-04-09T13:54:50.252Z,101223.31
2023-04-09T13:57:21.087Z,101220.89
2023-04-09T13:59:51.879Z,101221.42
2023-04-09T14:02:23.788Z,101215.14
2023-04-09T14:04:55.090Z,101213.36
2023-04-09T14:07:25.992Z,101210.43
2023-04-09T14:09:57.030Z,101213.27
2023-04-09T14:12:27.885Z,101217.67
2023-04-09T14:14:58.854Z,101212.86
2023-04-09T14:17:29.840Z,101210.15
2023-04-09T14:20:03.641Z,101212.05
2023-04-09T14:22:34.536Z,101203.28
2023-04-09T14:25:06.105Z,101201.70
2023-04-09T14:27:37.283Z,101207.27
2023-04-09T14:30:10.364Z,101201.63
2023-04-09T14:32:41.371Z,101202.09
2023-04-09T14:35:12.401Z,101198.83
2023-04-09T14:37:43.158Z,101200.63
2023-04-09T14:40:14.305Z,101194.62
2023-04-09T14:42:45.260Z,101196.02
2023-04-09T14:45:16.537Z,101198.58
2023-04-09T14:47:47.415Z,101193.34
2023-04-09T14:50:18.336Z,101189.67
2023-04-09T14:52:49.183Z,101191.40
2023-04-09T14:55:21.184Z,101192.05
2023-04-09T14:57:52.228Z,101192.86
2023-04-09T15:00:24.905Z,101193.26
2023-04-09T15:02:56.533Z,101187.29
2023-04-09T15:05:27.628Z,101182.09
2023-04-09T15:07:58.734Z,101184.50
2023-04-09T15:10:29.801Z,101185.14
2023-04-09T15:13:00.698Z,101184.40
2023-04-09T15:15:31.881Z,101183.80
2023-04-09T15:18:06.064Z,101177.94
2023-04-09T15:20:38.939Z,101175.70
2023-04-09T15:23:09.938Z,101179.83
2023-04-09T15:25:41.642Z,101176.73
2023-04-09T15:28:12.574Z,101178.64
2023-04-09T15:30:43.592Z,101175.86
2023-04-09T15:33:15.277Z,101174.15
2023-04-09T15:35:46.272Z,101172.48
2023-04-09T15:38:17.456Z,101167.67
2023-04-09T15:40:48.679Z,101164.56
2023-04-09T15:43:19.732Z,101162.98
2023-04-09T15:45:51.029Z,101162.77
2023-04-09T15:48:22.962Z,101157.80
2023-04-09T15:50:53.873Z,101160.39
2023-04-09T15:53:27.278Z,101160.46
2023-04-09T15:55:58.305Z,101153.98
2023-04-09T15:58:29.391Z,101155.23
2023-04-09T16:01:01.543Z,101152.88
2023-04-09T16:03:37.160Z,101154.60
2023-04-09T16:06:09.254Z,101153.54
2023-04-09T16:08:40.935Z,101153.11
2023-04-09T16:11:12.704Z,101153.33
2023-04-09T16:13:43.970Z,101152.92
2023-04-09T16:16:15.892Z,101152.18
2023-04-09T16:18:48.771Z,101151.90
2023-04-09T16:21:20.919Z,101151.69
2023-04-09T16:23:51.987Z,101148.57
2023-04-09T16:26:23.643Z,101151.58
2023-04-09T16:28:55.175Z,101147.42
2023-04-09T16:31:26.725Z,101150.30
2023-04-09T16:33:58.344Z,101145.63
2023-04-09T16:36:29.668Z,101146.14
2023-04-09T16:39:02.356Z,101142.76
2023-04-09T16:41:37.137Z,101147.48
2023-04-09T16:44:09.065Z,101150.61
2023-04-09T16:46:40.685Z,101149.97
2023-04-09T16:49:12.609Z,101148.73
2023-04-09T16:51:43.897Z,101149.02
2023-04-09T16:54:15.667Z,101154.83
2023-04-09T16:56:46.561Z,101149.73
2023-04-09T16:59:21.499Z,101149.85
2023-04-09T17:01:53.832Z,101148.01
2023-04-09T17:04:25.961Z,101150.48
2023-04-09T17:06:57.675Z,101154.31
2023-04-09T17:09:28.859Z,101152.10
2023-04-09T17:18:58.756Z,101160.42
2023-04-09T17:21:29.344Z,101164.52
2023-04-09T17:24:02.062Z,101165.91
2023-04-09T17:26:32.488Z,101168.15
2023-04-09T17:29:03.588Z,101171.02
2023-04-09T17:31:34.378Z,101172.70
2023-04-09T17:34:05.466Z,101174.89
2023-04-09T17:36:36.432Z,101182.98
2023-04-09T17:39:07.390Z,101187.17
2023-04-09T17:41:38.154Z,101190.77
2023-04-09T17:44:08.920Z,101191.15
2023-04-09T17:46:39.867Z,101191.46
2023-04-09T17:49:10.945Z,101196.79
2023-04-09T17:51:42.837Z,101200.98
2023-04-09T17:54:14.080Z,101202.05
2023-04-09T17:56:44.985Z,101202.58
2023-04-09T17:59:15.876Z,101207.76
2023-04-09T18:01:46.764Z,101212.91
2023-04-09T18:04:18.034Z,101214.33
2023-04-09T18:06:49.158Z,101217.73
2023-04-09T18:09:20.086Z,101216.98
2023-04-09T18:11:54.925Z,101223.69
2023-04-09T18:14:25.750Z,101227.61
2023-04-09T18:16:57.059Z,101226.68
2023-04-09T18:19:28.251Z,101227.80
2023-04-09T18:21:59.012Z,101229.13
2023-04-09T18:24:30.518Z,101229.42
2023-04-09T18:27:02.462Z,101227.02
2023-04-09T18:29:33.362Z,101226.99
2023-04-09T18:32:04.148Z,101228.44
2023-04-09T18:34:34.905Z,101229.27
2023-04-09T18:37:06.235Z,101227.34
2023-04-09T18:39:37.727Z,101231.09
2023-04-09T18:42:08.464Z,101232.08
2023-04-09T18:44:39.391Z,101236.19
2023-04-09T18:47:10.354Z,101234.35
2023-04-09T18:49:41.407Z,101239.45
2023-04-09T18:52:12.267Z,101238.15
2023-04-09T18:54:43.100Z,101240.68
2023-04-09T18:57:13.938Z,101238.82
2023-04-09T18:59:45.815Z,101238.87
2023-04-09T19:02:16.908Z,101231.20
2023-04-09T19:04:47.918Z,101232.88
2023-04-09T19:07:20.295Z,101238.59
2023-04-09T19:09:52.404Z,101238.41
2023-04-09T19:12:24.220Z,101235.16
2023-04-09T19:14:55.021Z,101234.00
2023-04-09T19:17:25.905Z,101234.02
2023-04-09T19:19:56.834Z,101231.53
2023-04-09T19:22:28.174Z,101238.82
2023-04-09T19:24:59.018Z,101235.61
2023-04-09T19:27:29.912Z,101234.48
2023-04-09T19:30:01.311Z,101229.08
2023-04-09T19:32:32.194Z,101230.65
2023-04-09T19:35:02.943Z,101235.89
2023-04-09T19:37:43.722Z,101231.52
2023-04-09T19:40:16.980Z,101233.46
2023-04-09T19:42:49.293Z,101229.08
2023-04-09T19:45:20.287Z,101228.23
2023-04-09T19:47:52.521Z,101230.52
2023-04-09T19:50:24.739Z,101229.61
2023-04-09T19:52:56.003Z,101229.79
2023-04-09T19:55:26.852Z,101231.45
2023-04-09T19:57:57.746Z,101230.85
2023-04-09T20:00:28.812Z,101224.66
2023-04-09T20:03:03.240Z,101227.60
2023-04-09T20:05:34.600Z,101227.81
2023-04-09T20:08:05.860Z,101227.17
2023-04-09T20:10:39.833Z,101226.09
2023-04-09T20:13:10.951Z,101227.38
2023-04-09T20:15:41.729Z,101226.54
2023-04-09T20:18:12.982Z,101222.59
2023-04-09T20:20:44.192Z,101222.50
2023-04-09T20:23:15.038Z,101219.52
2023-04-09T20:25:45.968Z,101221.51
2023-04-09T20:28:16.710Z,101222.32
2023-04-09T20:30:47.762Z,101222.86
2023-04-09T20:33:18.553Z,101221.96
2023-04-09T20:35:50.491Z,101220.48
2023-04-09T20:38:22.576Z,101219.36
2023-04-09T20:40:53.495Z,101216.40
2023-04-09T20:43:24.333Z,101216.95
2023-04-09T20:45:55.510Z,101222.83
2023-04-09T20:48:26.382Z,101222.45
2023-04-09T20:50:58.068Z,101224.54
2023-04-09T20:53:28.751Z,101221.77
2023-04-09T20:55:59.570Z,101226.48
2023-04-09T20:58:30.324Z,101226.27
2023-04-09T21:01:06.914Z,101228.14
2023-04-09T21:03:38.632Z,101224.55
2023-04-09T21:06:09.944Z,101227.77
2023-04-09T21:08:42.868Z,101224.70
2023-04-09T21:11:13.713Z,101225.78
2023-04-09T21:13:53.728Z,101227.47
2023-04-09T21:16:27.321Z,101226.78
2023-04-09T21:18:58.510Z,101229.09
2023-04-09T21:21:29.286Z,101228.23
2023-04-09T21:24:00.155Z,101228.38
2023-04-09T21:26:44.981Z,101225.81
2023-04-09T21:29:21.192Z,101226.20
2023-04-09T21:31:52.095Z,101224.81
2023-04-09T21:34:22.878Z,101226.65
2023-04-09T21:36:54.107Z,101224.16
2023-04-09T21:39:24.889Z,101227.02
2023-04-09T21:41:55.870Z,101224.80
2023-04-09T21:44:26.677Z,101226.11
2023-04-09T21:46:57.472Z,101223.04
2023-04-09T21:49:28.371Z,101223.19
2023-04-09T21:52:00.755Z,101220.86
2023-04-09T21:54:31.703Z,101223.42
2023-04-09T21:57:02.447Z,101223.65
2023-04-09T21:59:36.343Z,101228.52
2023-04-09T22:02:07.260Z,101227.50
2023-04-09T22:04:38.320Z,101228.09
2023-04-09T22:07:09.248Z,101227.05
2023-04-09T22:09:40.092Z,101225.43
2023-04-09T22:12:10.973Z,101225.45
2023-04-09T22:14:42.066Z,101225.05
2023-04-09T22:17:12.779Z,101225.64
2023-04-09T22:19:53.208Z,101227.80
2023-04-09T22:22:24.336Z,101227.89
2023-04-09T22:24:55.220Z,101230.67
2023-04-09T22:27:26.150Z,101233.33
2023-04-09T22:29:56.927Z,101229.54
2023-04-09T22:32:27.946Z,101231.71
2023-04-09T22:34:58.815Z,101231.27
2023-04-09T22:37:29.554Z,101231.23
2023-04-09T22:40:00.373Z,101231.19
2023-04-09T22:42:31.276Z,101228.03
2023-04-09T22:45:02.116Z,101227.65
2023-04-09T22:47:33.022Z,101227.27
2023-04-09T22:50:04.178Z,101225.85
2023-04-09T22:52:34.976Z,101225.79
2023-04-09T22:55:06.677Z,101226.58
2023-04-09T22:57:38.552Z,101229.00
2023-04-09T23:00:10.938Z,101228.12
2023-04-09T23:02:42.027Z,101223.07
2023-04-09T23:05:13.023Z,101224.31
2023-04-09T23:07:45.178Z,101222.54
2023-04-09T23:10:17.473Z,101221.85
2023-04-09T23:12:48.350Z,101220.48
2023-04-09T23:15:19.379Z,101219.14
2023-04-09T23:17:51.653Z,101222.01
2023-04-09T23:20:22.714Z,101217.59
2023-04-09T23:22:53.752Z,101215.49
2023-04-09T23:25:24.475Z,101213.01
2023-04-09T23:27:55.177Z,101210.38
2023-04-09T23:30:26.138Z,101208.65
2023-04-09T23:32:57.845Z,101205.60
2023-04-09T23:35:28.875Z,101204.94
2023-04-09T23:37:59.740Z,101199.52
2023-04-09T23:40:30.966Z,101197.10
2023-04-09T23:43:02.375Z,101197.02
2023-04-09T23:45:33.322Z,101199.91
2023-04-09T23:48:04.446Z,101199.29
2023-04-09T23:50:35.248Z,101194.35
2023-04-09T23:53:06.800Z,101193.07
2023-04-09T23:55:41.326Z,101186.59
2023-04-09T23:58:13.122Z,101188.66
